Innocent Merriment — WDB2799 — position and weather

sailwx.info

Track history (hours):
 
Tides and Currents Weather Stations Pressure Air Temp Water Temp Dewpoint Dewpoint Depression Visibility Wind Speed Wind Dir Waves Ship Positions

Innocent Merriment

Owner: Lyon, Myron C, San Diego, CA. More information available from US FCC via Universal Licensing System and Coast Guard Vessel Documentation Center.

Last reported at 2017-Aug-28 07:41 UTC. Time now 2017-Sep-22 17:23 UTC.
Position N 32°43' W 117°14'.
Warning: this ship's position is 25 days out of date.

Length 16 m.

Type: Pleasure craft. MMSI: 366879930.

Date/timePositionNaut miles runAvg speedWind from/ knotsBaromVisibWave heightAir tempDewpointWater temp
2017-Aug-28 07:41N 32°43' W 117°14'1 6.3
2017-Aug-28 07:29N 32°42' W 117°14'3 6.9
2017-Aug-28 06:59N 32°38' W 117°15'4 9.2
2017-Aug-28 06:30N 32°42' W 117°18'5 9.4
2017-Aug-28 06:00N 32°46' W 117°19'5 9.4
2017-Aug-28 05:30N 32°51' W 117°21'5 9.2
2017-Aug-28 05:00N 32°55' W 117°23'5 9.2
2017-Aug-28 04:30N 32°59' W 117°25'5 9.1
2017-Aug-28 04:00N 33°04' W 117°27'4 9.0
2017-Aug-28 03:30N 33°08' W 117°29'4 9.0
2017-Aug-28 03:00N 33°12' W 117°31'4 9.0
2017-Aug-28 02:30N 33°16' W 117°33'4 8.3
2017-Aug-28 02:00N 33°20' W 117°35'4 8.8
2017-Aug-28 01:30N 33°24' W 117°38'4 8.7
2017-Aug-28 01:00N 33°27' W 117°42'4 8.9
2017-Aug-28 00:30N 33°30' W 117°46'5 8.9
2017-Aug-28 00:00N 33°33' W 117°50'4 8.2
2017-Aug-27 23:30N 33°36' W 117°53'1 1.5
2017-Aug-27 23:00N 33°35' W 117°54'4 7.2
2017-Aug-27 22:30N 33°35' W 117°58'510.4
2017-Aug-27 22:00N 33°33' W 118°03'510.2
2017-Aug-27 21:30N 33°30' W 118°09'5 9.2
2017-Aug-27 21:00N 33°28' W 118°13'8 0.2
2017-Aug-26 01:28N 33°24' W 118°22'2 3.7
2017-Aug-26 00:51N 33°25' W 118°20'1 3.3
2017-Aug-26 00:30N 33°26' W 118°20'20 4.8
2017-Aug-25 20:14N 33°37' W 117°59'0 1.1
2017-Aug-25 19:54N 33°37' W 117°58'2 1.5
2017-Aug-25 18:43N 33°36' W 117°57'1 6.0
2017-Aug-25 18:30N 33°36' W 117°55'2 4.1
2017-Aug-25 18:00N 33°36' W 117°53'2 2.9
2017-Aug-25 17:28N 33°36' W 117°55'0 0.0
2017-Aug-24 14:38N 33°36' W 117°55'0 0.0
2017-Aug-24 14:29N 33°36' W 117°55'3 5.8
2017-Aug-24 13:59N 33°34' W 117°52'4 8.5
2017-Aug-24 13:30N 33°31' W 117°50'4 8.1
2017-Aug-24 13:00N 33°27' W 117°48'4 7.9
2017-Aug-24 12:30N 33°24' W 117°45'4 7.8
2017-Aug-24 12:00N 33°20' W 117°43'4 8.1
2017-Aug-24 11:30N 33°17' W 117°41'4 8.5
2017-Aug-24 11:00N 33°13' W 117°38'4 8.9
2017-Aug-24 10:30N 33°09' W 117°36'4 9.0
2017-Aug-24 10:00N 33°05' W 117°33'4 9.0
2017-Aug-24 09:30N 33°01' W 117°31'4 8.8
2017-Aug-24 09:00N 32°57' W 117°28'4 8.5
2017-Aug-24 08:30N 32°53' W 117°26'4 8.2
2017-Aug-24 08:00N 32°50' W 117°24'4 8.2
2017-Aug-24 07:30N 32°46' W 117°21'4 8.0
2017-Aug-24 07:00N 32°43' W 117°19'4 7.7
2017-Aug-24 06:30N 32°39' W 117°17'3 5.1
2017-Aug-24 06:00N 32°39' W 117°14'3 6.7
2017-Aug-24 05:30N 32°42' W 117°14'1 1.7
2017-Aug-24 04:55N 32°43' W 117°14'0 0.0
2017-Aug-24 04:25N 32°43' W 117°14'0 0.0
2017-Aug-24 03:55N 32°43' W 117°14'0 0.0
2017-Aug-22 01:45N 32°43' W 117°14'  
Track history (hours):
 
Tides and Currents Weather Stations Pressure Air Temp Water Temp Dewpoint Dewpoint Depression Visibility Wind Speed Wind Dir Waves Ship Positions

Innocent Merriment

Owner: Lyon, Myron C, San Diego, CA. More information available from US FCC via Universal Licensing System and Coast Guard Vessel Documentation Center.

Last reported at 2017-Aug-28 07:41 UTC. Time now 2017-Sep-22 17:23 UTC.
Position N 32°43' W 117°14'.
Warning: this ship's position is 25 days out of date.

Length 16 m.

Type: Pleasure craft. MMSI: 366879930.

Date/timePositionNaut miles runAvg speedWind from/ knotsBaromVisibWave heightAir tempDewpointWater temp
2017-Aug-28 07:41N 32°43' W 117°14'1 6.3
2017-Aug-28 07:29N 32°42' W 117°14'3 6.9
2017-Aug-28 06:59N 32°38' W 117°15'4 9.2
2017-Aug-28 06:30N 32°42' W 117°18'5 9.4
2017-Aug-28 06:00N 32°46' W 117°19'5 9.4
2017-Aug-28 05:30N 32°51' W 117°21'5 9.2
2017-Aug-28 05:00N 32°55' W 117°23'5 9.2
2017-Aug-28 04:30N 32°59' W 117°25'5 9.1
2017-Aug-28 04:00N 33°04' W 117°27'4 9.0
2017-Aug-28 03:30N 33°08' W 117°29'4 9.0
2017-Aug-28 03:00N 33°12' W 117°31'4 9.0
2017-Aug-28 02:30N 33°16' W 117°33'4 8.3
2017-Aug-28 02:00N 33°20' W 117°35'4 8.8
2017-Aug-28 01:30N 33°24' W 117°38'4 8.7
2017-Aug-28 01:00N 33°27' W 117°42'4 8.9
2017-Aug-28 00:30N 33°30' W 117°46'5 8.9
2017-Aug-28 00:00N 33°33' W 117°50'4 8.2
2017-Aug-27 23:30N 33°36' W 117°53'1 1.5
2017-Aug-27 23:00N 33°35' W 117°54'4 7.2
2017-Aug-27 22:30N 33°35' W 117°58'510.4
2017-Aug-27 22:00N 33°33' W 118°03'510.2
2017-Aug-27 21:30N 33°30' W 118°09'5 9.2
2017-Aug-27 21:00N 33°28' W 118°13'8 0.2
2017-Aug-26 01:28N 33°24' W 118°22'2 3.7
2017-Aug-26 00:51N 33°25' W 118°20'1 3.3
2017-Aug-26 00:30N 33°26' W 118°20'20 4.8
2017-Aug-25 20:14N 33°37' W 117°59'0 1.1
2017-Aug-25 19:54N 33°37' W 117°58'2 1.5
2017-Aug-25 18:43N 33°36' W 117°57'1 6.0
2017-Aug-25 18:30N 33°36' W 117°55'2 4.1
2017-Aug-25 18:00N 33°36' W 117°53'2 2.9
2017-Aug-25 17:28N 33°36' W 117°55'0 0.0
2017-Aug-24 14:38N 33°36' W 117°55'0 0.0
2017-Aug-24 14:29N 33°36' W 117°55'3 5.8
2017-Aug-24 13:59N 33°34' W 117°52'4 8.5
2017-Aug-24 13:30N 33°31' W 117°50'4 8.1
2017-Aug-24 13:00N 33°27' W 117°48'4 7.9
2017-Aug-24 12:30N 33°24' W 117°45'4 7.8
2017-Aug-24 12:00N 33°20' W 117°43'4 8.1
2017-Aug-24 11:30N 33°17' W 117°41'4 8.5
2017-Aug-24 11:00N 33°13' W 117°38'4 8.9
2017-Aug-24 10:30N 33°09' W 117°36'4 9.0
2017-Aug-24 10:00N 33°05' W 117°33'4 9.0
2017-Aug-24 09:30N 33°01' W 117°31'4 8.8
2017-Aug-24 09:00N 32°57' W 117°28'4 8.5
2017-Aug-24 08:30N 32°53' W 117°26'4 8.2
2017-Aug-24 08:00N 32°50' W 117°24'4 8.2
2017-Aug-24 07:30N 32°46' W 117°21'4 8.0
2017-Aug-24 07:00N 32°43' W 117°19'4 7.7
2017-Aug-24 06:30N 32°39' W 117°17'3 5.1
2017-Aug-24 06:00N 32°39' W 117°14'3 6.7
2017-Aug-24 05:30N 32°42' W 117°14'1 1.7
2017-Aug-24 04:55N 32°43' W 117°14'0 0.0
2017-Aug-24 04:25N 32°43' W 117°14'0 0.0
2017-Aug-24 03:55N 32°43' W 117°14'0 0.0
2017-Aug-22 01:45N 32°43' W 117°14'  

Dump ship's entire track history